Rogers Spring, Nevada Weather observations

Data are for 10 minute period ending at time listed.
 Day   Time   Solar   Ave.   Ave.  Ave.  Vector  Max.   Baro.   Total    
  of    of     Rad.   Air    Rel.  Wind   Wind   Wind  Press.  Precip.   
Year   Day            Temp.  Hum.  Speed  Dir.   Gust                    
2014   (PST)  Kw/m2    F      %     mph   deg.    mph    mb.     in.     
-------------------------------------------------------------------------
 114    0:00   0.00   43.4    35    0.4   157     1.7   932.5    0.00 
 114    0:10   0.00   42.5    38    1.7    18     2.4   932.5    0.00 
 114    0:20   0.00   45.4    28    2.4    60     4.4   932.5    0.00 
 114    0:30   0.00   49.3    25    2.5    84     4.3   932.5    0.00 
 114    0:40   0.00   45.8    28    3.5    66     4.5   932.4    0.00 
 114    0:50   0.00   47.5    25    2.7    78     4.6   932.5    0.00 
 114    1:00   0.00   45.1    28    2.8    59     3.4   932.5    0.00 
 114    1:10   0.00   45.7    28    2.8    54     3.5   932.6    0.00 
 114    1:20   0.00   44.4    28    3.4    70     4.6   932.6    0.00 
 114    1:30   0.00   45.7    27    4.0    70     5.6   932.6    0.00 
 114    1:40   0.00   48.4    24    3.9    71     6.4   932.5    0.00 
 114    1:50   0.00   47.5    26    1.4   244     4.4   932.6    0.00 
 114    2:00   0.00   47.3    25    2.8    50     4.6   932.5    0.00 
 114    2:10   0.00   43.6    28    1.2    12     2.3   932.5    0.00 
 114    2:20   0.00   42.2    29    2.2    25     2.6   932.5    0.00 
 114    2:30   0.00   42.9    28    2.6    50     4.5   932.4    0.00 
 114    2:40   0.00   41.9    30    2.3    48     3.1   932.4    0.00 
 114    2:50   0.00   41.8    34    1.9    60     2.6   932.5    0.00 
 114    3:00   0.00   41.8    31    2.9    69     4.7   932.6    0.00 
 114    3:10   0.00   44.4    27    3.0    78     4.4   932.6    0.00 
 114    3:20   0.00   47.3    24    3.1    85     4.7   932.6    0.00 
 114    3:30   0.00   46.9    26    2.3    50     3.9   932.6    0.00 
 114    3:40   0.00   42.8    31    2.1    43     3.0   932.7    0.00 
 114    3:50   0.00   40.3    33    2.5    52     3.6   932.6    0.00 
 114    4:00   0.00   40.1    30    2.9    68     3.9   932.5    0.00 
 114    4:10   0.00   40.4    32    2.2    85     3.4   932.4    0.00 
 114    4:20   0.00   39.9    37    1.8    65     3.4   932.4    0.00 
 114    4:30   0.00   38.5    38    1.2    28     2.7   932.6    0.00 
 114    4:40   0.00   37.2    41    1.7    14     2.4   932.8    0.00 
 114    4:50   0.00   36.5    38    2.2    14     3.7   933.0    0.00 
 114    5:00   0.00   37.3    37    2.7    45     4.4   933.1    0.00 
 114    5:10   0.01   38.0    35    2.8    50     4.2   933.1    0.00 
 114    5:20   0.02   38.1    34    2.7    38     4.2   933.2    0.00 
 114    5:30   0.05   39.4    34    2.3    26     3.8   933.4    0.00 
 114    5:40   0.08   42.0    31    3.3    62     4.6   933.4    0.00 
 114    5:50   0.11   45.0    28    1.4    43     3.1   933.4    0.00 
 114    6:00   0.14   45.7    32    1.1   204     2.3   933.4    0.00 
 114    6:10   0.17   47.1    31    0.5   138     1.6   933.4    0.00 
 114    6:20   0.20   50.5    27    1.9    81     3.4   933.4    0.00 
 114    6:30   0.24   54.6    22    0.9    47     2.0   933.5    0.00 
 114    6:40   0.28   55.2    20    2.6    41     3.7   933.5    0.00 
 114    6:50   0.32   55.2    19    2.7    42     4.2   933.6    0.00 
 114    7:00   0.35   56.9    18    1.7    49     3.3   933.7    0.00 
 114    7:10   0.39   58.9    17    1.2     6     3.1   933.8    0.00 
 114    7:20   0.42   60.9    16    1.3   320     3.0   933.9    0.00 
 114    7:30   0.46   62.4    16    1.7   297     4.2   934.0    0.00 
 114    7:40   0.49   63.9    14    1.3   255     3.4   934.1    0.00 
 114    7:50   0.53   65.5    14    1.5    31     2.6   934.3    0.00 
 114    8:00   0.56   66.5    14    1.5   251     4.2   934.3    0.00 
 114    8:10   0.60   67.0    14    2.4   265     5.0   934.5    0.00 
 114    8:20   0.63   68.5    13    1.7   177     4.2   934.5    0.00 
 114    8:30   0.66   69.8    12    2.0   195     4.9   934.5    0.00 
 114    8:40   0.69   69.7    13    2.2   148     5.5   934.6    0.00 
 114    8:50   0.72   70.3    12    2.7   197     7.0   934.6    0.00 
 114    9:00   0.75   71.0    12    2.4   184     5.3   934.6    0.00 
 114    9:10   0.78   71.7    12    2.0   221     4.9   934.6    0.00 
 114    9:20   0.80   72.2    12    1.9   130     5.8   934.5    0.00 
 114    9:30   0.83   74.6    11    2.6   159     5.6   934.6    0.00 
 114    9:40   0.85   74.3    11    3.9   172     7.0   934.5    0.00 
 114    9:50   0.87   74.0    12    4.3   195     8.6   934.5    0.00 
 114   10:00   0.89   74.5    12    4.2   221     8.3   934.4    0.00 
 114   10:10   0.91   75.1    12    3.9   209     9.0   934.4    0.00 
 114   10:20   0.93   75.1    12    4.7   220     9.9   934.3    0.00 
 114   10:30   0.94   76.2    12    4.3   187     8.5   934.3    0.00 
 114   10:40   0.96   76.7    11    4.3   198     9.0   934.2    0.00 
 114   10:50   0.97   76.7    11    4.1   203    10.4   934.1    0.00 
 114   11:00   0.98   77.9    10    3.9   189    11.5   933.9    0.00 
 114   11:10   0.99   78.7    10    4.7   198    10.5   933.6    0.00 
 114   11:20   0.99   78.6    10    3.7   168     8.6   933.4    0.00 
 114   11:30   1.00   79.4    10    4.8   204     9.9   933.1    0.00 
 114   11:40   1.00   78.8    10    4.7   194    11.6   932.9    0.00 
 114   11:50   1.00   79.4    10    3.3   171     9.0   932.8    0.00 
 114   12:00   1.00   80.7     9    4.9   222     9.6   932.6    0.00 
 114   12:10   1.00   81.4     9    6.5   208    12.4   932.4    0.00 
 114   12:20   0.99   81.8     9    5.6   205    13.1   932.2    0.00 
 114   12:30   0.99   81.9     8    6.8   192    13.2   932.1    0.00 
 114   12:40   0.98   82.3     8    5.1   191    10.2   931.8    0.00 
 114   12:50   0.97   82.3     8    5.9   168    12.2   931.6    0.00 
 114   13:00   0.96   82.0     8    6.0   188    13.6   931.4    0.00 
 114   13:10   0.94   82.7     8    5.1   170    12.3   931.3    0.00 
 114   13:20   0.93   82.3     8    5.1   226    11.2   931.1    0.00 
 114   13:30   0.91   82.7     8    6.6   170    14.2   931.1    0.00 
 114   13:40   0.90   82.9     8    4.8   216    10.4   931.0    0.00 
 114   13:50   0.88   83.8     8    6.0   180    11.5   930.8    0.00 
 114   14:00   0.85   83.2     8    6.2   177    13.2   930.7    0.00 
 114   14:10   0.83   82.8     7    6.6   193    13.1   930.4    0.00 
 114   14:20   0.81   83.5     7    6.5   180    11.9   930.2    0.00 
 114   14:30   0.78   82.9     7    5.6   197    12.3   930.1    0.00 
 114   14:40   0.75   83.1     7    6.2   160    11.1   930.0    0.00 
 114   14:50   0.73   82.8     7    5.3   188     9.9   929.8    0.00 
 114   15:00   0.69   83.3     8    5.7   166    10.8   929.6    0.00 
 114   15:10   0.66   83.3     8    6.0   176    12.6   929.4    0.00 
 114   15:20   0.63   83.3     8    7.2   168    12.3   929.3    0.00 
 114   15:30   0.60   82.9     8    6.2   167    11.6   929.1    0.00 
 114   15:40   0.56   82.5     8    7.3   168    14.9   928.9    0.00 
 114   15:50   0.53   82.7     8    7.8   170    13.2   928.8    0.00 
 114   16:00   0.49   82.6     8    7.6   157    15.5   928.7    0.00 
 114   16:10   0.46   82.4     8    6.9   159    12.1   928.6    0.00 
 114   16:20   0.42   82.3     8    6.9   154    12.2   928.4    0.00 
 114   16:30   0.38   82.1     8    6.7   170    14.2   928.4    0.00 
 114   16:40   0.34   82.2     8    7.3   161    13.4   928.3    0.00 
 114   16:50   0.30   81.6     8    7.4   165    13.7   928.2    0.00 
 114   17:00   0.27   81.3     8    6.9   160    13.1   928.2    0.00 
 114   17:10   0.23   81.0     8    7.4   165    12.2   928.0    0.00 
 114   17:20   0.20   80.4     9    7.2   165    13.2   928.0    0.00 
 114   17:30   0.16   80.0     9    6.9   164    15.7   927.9    0.00 
 114   17:40   0.13   79.4     9    7.0   164    12.6   927.8    0.00 
 114   17:50   0.10   78.7     9    6.8   168    13.5   927.8    0.00 
 114   18:00   0.07   78.0    10    6.1   164    10.8   927.8    0.00 
 114   18:10   0.04   77.0    10    5.5   165     9.8   927.8    0.00 
 114   18:20   0.02   75.8    10    6.0   162    10.6   927.8    0.00 
 114   18:30   0.01   74.6    11    4.7   158     7.7   927.9    0.00 
 114   18:40   0.00   73.2    11    4.2   159     7.6   927.9    0.00 
 114   18:50   0.00   71.8    12    3.6   150     5.6   927.8    0.00 
 114   19:00   0.00   71.5    12    3.4   145     6.6   927.9    0.00 
 114   19:10   0.00   71.0    12    3.3   152     6.5   928.0    0.00 
 114   19:20   0.00   69.8    12    3.3   151     6.0   928.1    0.00 
 114   19:30   0.00   69.3    12    3.3   146     5.4   928.1    0.00 
 114   19:40   0.00   68.7    12    2.9   135     4.8   928.1    0.00 
 114   19:50   0.00   68.2    12    3.2   146     4.7   928.1    0.00 
 114   20:00   0.00   67.7    12    4.1   154     8.1   928.1    0.00 
 114   20:10   0.00   70.0    11    6.0   155    11.2   928.0    0.00 
 114   20:20   0.00   72.0    11    6.8   154    13.4   928.0    0.00 
 114   20:30   0.00   72.6    10    7.2   152    12.4   927.9    0.00 
 114   20:40   0.00   73.0    10    7.2   154    12.0   927.9    0.00 
 114   20:50   0.00   73.1    10    6.4   148    13.5   927.8    0.00 
 114   21:00   0.00   73.5    10    6.8   141    13.6   927.8    0.00 
 114   21:10   0.00   73.3    10    5.7   139    11.1   927.7    0.00 
 114   21:20   0.00   72.4    10    5.8   141    11.2   927.7    0.00 
 114   21:30   0.00   71.5    11    4.4   132    10.4   927.6    0.00 
 114   21:40   0.00   70.5    12    4.6   141    10.2   927.6    0.00 
 114   21:50   0.00   70.5    12    6.2   155    10.7   927.5    0.00 
 114   22:00   0.00   70.6    12    6.7   161    12.3   927.5    0.00 
 114   22:10   0.00   70.2    12    7.1   159    11.5   927.5    0.00 
 114   22:20   0.00   69.9    12    7.0   161    12.7   927.3    0.00 
 114   22:30   0.00   69.6    12    6.3   167    11.3   927.2    0.00 
 114   22:40   0.00   67.8    13    4.8   174     8.9   927.2    0.00 

Return to Rogers Spring graphs page.


Western Regional Climate Center,wrcc@dri.edu